createdAt,value
2022-12-31T00:00:15.688Z,5.79
2022-12-31T00:02:43.105Z,5.84
2022-12-31T00:05:10.777Z,5.95
2022-12-31T00:10:04.725Z,5.90
2022-12-31T00:12:32.064Z,5.93
2022-12-31T00:14:59.330Z,5.92
2022-12-31T00:17:26.653Z,5.83
2022-12-31T00:19:54.027Z,5.77
2022-12-31T00:22:21.277Z,5.81
2022-12-31T00:24:48.548Z,5.84
2022-12-31T00:27:16.360Z,5.74
2022-12-31T00:29:43.671Z,5.61
2022-12-31T00:32:10.860Z,5.57
2022-12-31T00:34:38.101Z,5.52
2022-12-31T00:37:05.394Z,5.49
2022-12-31T00:39:32.716Z,5.51
2022-12-31T00:41:59.967Z,5.55
2022-12-31T00:44:27.161Z,5.61
2022-12-31T00:46:54.465Z,5.65
2022-12-31T00:49:21.895Z,5.74
2022-12-31T00:51:49.654Z,5.73
2022-12-31T00:54:16.977Z,5.82
2022-12-31T00:56:44.181Z,5.80
2022-12-31T00:59:11.370Z,5.86
2022-12-31T01:01:39.978Z,5.80
2022-12-31T01:04:11.232Z,5.80
2022-12-31T01:06:38.997Z,5.80
2022-12-31T01:09:07.243Z,5.83
2022-12-31T01:11:34.646Z,5.88
2022-12-31T01:14:14.261Z,5.84
2022-12-31T01:16:46.156Z,5.95
2022-12-31T01:19:17.461Z,6.02
2022-12-31T01:21:45.877Z,5.96
2022-12-31T01:24:13.408Z,5.91
2022-12-31T01:26:41.136Z,5.98
2022-12-31T01:29:10.070Z,6.12
2022-12-31T01:31:38.098Z,5.82
2022-12-31T01:34:06.208Z,5.88
2022-12-31T01:36:35.367Z,5.93
2022-12-31T01:39:05.546Z,5.89
2022-12-31T01:41:36.070Z,5.85
2022-12-31T01:44:12.400Z,5.79
2022-12-31T01:47:02.508Z,5.77
2022-12-31T01:49:29.594Z,5.75
2022-12-31T01:52:07.591Z,5.75
2022-12-31T01:54:40.165Z,5.66
2022-12-31T01:57:08.642Z,5.40
2022-12-31T01:59:36.233Z,5.41
2022-12-31T02:02:04.613Z,5.43
2022-12-31T02:04:33.122Z,5.38
2022-12-31T02:07:03.269Z,5.73
2022-12-31T02:09:31.480Z,5.75
2022-12-31T02:11:59.309Z,5.82
2022-12-31T02:14:36.542Z,5.71
2022-12-31T02:17:24.922Z,5.87
2022-12-31T02:20:30.666Z,6.02
2022-12-31T02:23:04.089Z,6.24
2022-12-31T02:25:37.632Z,6.32
2022-12-31T02:28:42.723Z,6.52
2022-12-31T02:31:18.880Z,6.68
2022-12-31T02:33:54.911Z,6.80
2022-12-31T02:36:30.084Z,6.74
2022-12-31T02:38:58.525Z,6.91
2022-12-31T02:41:44.531Z,7.03
2022-12-31T02:44:33.988Z,7.10
2022-12-31T02:47:07.337Z,7.32
2022-12-31T02:50:09.509Z,7.26
2022-12-31T02:53:12.695Z,7.52
2022-12-31T02:56:07.495Z,7.38
2022-12-31T02:58:59.519Z,7.35
2022-12-31T03:01:53.880Z,7.35
2022-12-31T03:04:34.522Z,7.40
2022-12-31T03:07:07.944Z,7.54
2022-12-31T03:09:36.266Z,7.58
2022-12-31T03:12:25.414Z,7.58
2022-12-31T03:14:53.150Z,7.52
2022-12-31T03:17:20.734Z,7.61
2022-12-31T03:20:06.515Z,7.70
2022-12-31T03:22:36.436Z,7.76
2022-12-31T03:25:28.100Z,7.71
2022-12-31T03:27:56.549Z,7.90
2022-12-31T03:30:25.314Z,7.78
2022-12-31T03:32:53.835Z,7.75
2022-12-31T03:35:21.988Z,7.75
2022-12-31T03:37:50.333Z,7.86
2022-12-31T03:40:19.375Z,7.91
2022-12-31T03:42:46.793Z,7.88
2022-12-31T03:45:14.379Z,8.00
2022-12-31T03:47:41.711Z,7.96
2022-12-31T03:50:11.676Z,7.90
2022-12-31T03:52:39.008Z,7.89
2022-12-31T03:55:07.548Z,7.89
2022-12-31T03:57:35.021Z,7.84
2022-12-31T04:00:02.587Z,7.80
2022-12-31T04:02:31.982Z,7.88
2022-12-31T04:04:59.342Z,7.80
2022-12-31T04:07:26.632Z,7.79
2022-12-31T04:09:54.084Z,7.83
2022-12-31T04:12:21.464Z,7.75
2022-12-31T04:14:48.740Z,7.67
2022-12-31T04:17:16.006Z,7.63
2022-12-31T04:19:43.304Z,7.55
2022-12-31T04:22:11.458Z,7.56
2022-12-31T04:24:38.817Z,7.39
2022-12-31T04:27:08.049Z,7.32
2022-12-31T04:29:35.907Z,7.26
2022-12-31T04:32:05.364Z,7.33
2022-12-31T04:34:33.251Z,7.29
2022-12-31T04:37:00.576Z,7.27
2022-12-31T04:39:28.058Z,7.18
2022-12-31T04:41:55.462Z,7.07
2022-12-31T04:44:22.873Z,7.14
2022-12-31T04:46:50.102Z,7.03
2022-12-31T04:49:17.446Z,7.25
2022-12-31T04:51:44.703Z,7.11
2022-12-31T04:54:12.012Z,7.06
2022-12-31T04:56:39.289Z,7.03
2022-12-31T04:59:07.393Z,7.08
2022-12-31T05:01:36.776Z,6.97
2022-12-31T05:04:04.155Z,7.10
2022-12-31T05:06:31.428Z,7.08
2022-12-31T05:08:59.136Z,7.08
2022-12-31T05:11:26.508Z,7.06
2022-12-31T05:13:53.771Z,7.06
2022-12-31T05:16:21.129Z,7.06
2022-12-31T05:18:48.564Z,7.07
2022-12-31T05:21:21.190Z,7.14
2022-12-31T05:23:49.022Z,7.16
2022-12-31T05:26:17.278Z,7.04
2022-12-31T05:28:44.573Z,6.95
2022-12-31T05:31:12.095Z,6.99
2022-12-31T05:33:39.477Z,7.06
2022-12-31T05:36:07.648Z,7.01
2022-12-31T05:38:34.928Z,7.03
2022-12-31T05:41:05.550Z,7.10
2022-12-31T05:43:33.812Z,7.04
2022-12-31T05:46:02.362Z,6.97
2022-12-31T05:48:30.359Z,6.87
2022-12-31T05:50:58.672Z,6.87
2022-12-31T05:53:26.218Z,6.79
2022-12-31T05:55:53.603Z,6.79
2022-12-31T05:58:20.900Z,6.72
2022-12-31T06:00:48.352Z,6.75
2022-12-31T06:03:15.671Z,6.72
2022-12-31T06:05:43.112Z,6.69
2022-12-31T06:08:12.115Z,6.73
2022-12-31T06:10:40.577Z,6.65
2022-12-31T06:13:08.799Z,6.71
2022-12-31T06:15:39.716Z,6.62
2022-12-31T06:18:07.301Z,6.55
2022-12-31T06:20:37.853Z,6.58
2022-12-31T06:23:05.693Z,6.55
2022-12-31T06:25:35.542Z,6.53
2022-12-31T06:28:04.408Z,6.49
2022-12-31T06:30:32.425Z,6.56
2022-12-31T06:32:59.766Z,6.53
2022-12-31T06:35:27.405Z,6.56
2022-12-31T06:37:54.636Z,6.48
2022-12-31T06:40:22.000Z,6.50
2022-12-31T06:42:56.068Z,6.53
2022-12-31T06:45:27.583Z,6.52
2022-12-31T06:47:54.960Z,6.49
2022-12-31T06:50:22.206Z,6.52
2022-12-31T06:52:49.556Z,6.43
2022-12-31T06:55:17.101Z,6.41
2022-12-31T06:57:44.730Z,6.43
2022-12-31T07:00:13.655Z,6.45
2022-12-31T07:03:18.631Z,6.48
2022-12-31T07:05:56.412Z,6.47
2022-12-31T07:08:51.725Z,6.46
2022-12-31T07:11:24.215Z,6.48
2022-12-31T07:14:04.383Z,6.48
2022-12-31T07:17:04.547Z,6.53
2022-12-31T07:19:57.899Z,6.64
2022-12-31T07:22:25.727Z,6.77
2022-12-31T07:24:53.472Z,6.82
2022-12-31T07:27:29.563Z,7.07
2022-12-31T07:30:00.154Z,7.16
2022-12-31T07:32:59.851Z,7.32
2022-12-31T07:35:40.050Z,7.54
2022-12-31T07:38:28.665Z,7.67
2022-12-31T07:41:28.229Z,7.90
2022-12-31T07:44:30.101Z,8.25
2022-12-31T07:47:00.022Z,8.35
2022-12-31T07:49:28.825Z,8.54
2022-12-31T07:51:56.641Z,8.72
2022-12-31T07:54:24.077Z,8.89
2022-12-31T07:56:51.951Z,9.06
2022-12-31T07:59:45.506Z,9.22
2022-12-31T08:02:24.135Z,9.42
2022-12-31T08:04:58.803Z,9.56
2022-12-31T08:07:41.458Z,9.65
2022-12-31T08:10:29.957Z,9.72
2022-12-31T08:13:02.348Z,9.71
2022-12-31T08:15:30.678Z,9.75
2022-12-31T08:17:58.408Z,9.85
2022-12-31T08:20:26.935Z,9.93
2022-12-31T08:23:03.133Z,9.96
2022-12-31T08:26:07.858Z,9.86
2022-12-31T08:29:08.948Z,9.83
2022-12-31T08:32:15.434Z,9.64
2022-12-31T08:34:48.727Z,9.57
2022-12-31T08:37:37.423Z,9.56
2022-12-31T08:40:14.353Z,9.62
2022-12-31T08:42:50.334Z,9.77
2022-12-31T08:45:35.954Z,10.04
2022-12-31T08:48:35.983Z,10.32
2022-12-31T08:51:04.245Z,10.37
2022-12-31T08:53:35.170Z,10.43
2022-12-31T08:56:13.082Z,10.59
2022-12-31T08:59:01.928Z,10.68
2022-12-31T09:01:41.454Z,10.78
2022-12-31T09:04:28.450Z,10.95
2022-12-31T09:07:02.437Z,11.13
2022-12-31T09:10:11.685Z,11.26
2022-12-31T09:12:53.538Z,11.64
2022-12-31T09:15:34.006Z,11.75
2022-12-31T09:18:01.614Z,12.08
2022-12-31T09:20:42.417Z,12.13
2022-12-31T09:23:12.516Z,12.16
2022-12-31T09:26:15.366Z,11.98
2022-12-31T09:28:52.293Z,12.07
2022-12-31T09:31:35.621Z,12.09
2022-12-31T09:34:14.909Z,12.35
2022-12-31T09:36:48.579Z,12.41
2022-12-31T09:39:42.142Z,12.28
2022-12-31T09:42:12.242Z,12.51
2022-12-31T09:45:17.061Z,12.82
2022-12-31T09:47:56.306Z,13.04
2022-12-31T09:50:56.616Z,13.25
2022-12-31T09:53:29.834Z,13.07
2022-12-31T09:56:20.388Z,13.14
2022-12-31T09:58:57.357Z,13.23
2022-12-31T10:01:46.036Z,13.65
2022-12-31T10:04:45.029Z,13.60
2022-12-31T10:07:24.280Z,13.76
2022-12-31T10:10:00.459Z,13.79
2022-12-31T10:12:33.701Z,13.90
2022-12-31T10:15:19.524Z,13.97
2022-12-31T10:17:55.928Z,13.88
2022-12-31T10:20:54.317Z,13.82
2022-12-31T10:23:52.340Z,14.29
2022-12-31T10:26:31.671Z,14.21
2022-12-31T10:29:44.987Z,14.33
2022-12-31T10:32:31.198Z,14.71
2022-12-31T10:35:02.490Z,14.53
2022-12-31T10:37:53.223Z,14.53
2022-12-31T10:40:42.381Z,14.48
2022-12-31T10:43:47.218Z,14.13
2022-12-31T10:46:36.590Z,14.17
2022-12-31T10:49:16.207Z,14.00
2022-12-31T10:52:25.643Z,14.06
2022-12-31T10:55:26.313Z,14.34
2022-12-31T10:58:17.909Z,14.50
2022-12-31T11:00:51.036Z,14.47
2022-12-31T11:03:49.703Z,14.64
2022-12-31T11:06:36.709Z,14.29
2022-12-31T11:09:28.625Z,14.51
2022-12-31T11:12:29.811Z,14.63
2022-12-31T11:15:15.938Z,14.96
2022-12-31T11:17:52.341Z,14.99
2022-12-31T11:20:50.445Z,14.77
2022-12-31T11:24:01.062Z,14.99
2022-12-31T11:26:40.596Z,14.87
2022-12-31T11:29:29.633Z,14.97
2022-12-31T11:32:23.647Z,15.03
2022-12-31T11:35:12.156Z,15.10
2022-12-31T11:37:45.121Z,15.26
2022-12-31T11:40:21.751Z,15.32
2022-12-31T11:43:04.870Z,15.24
2022-12-31T11:46:02.580Z,15.24
2022-12-31T11:48:35.906Z,15.30
2022-12-31T11:51:22.008Z,15.28
2022-12-31T11:54:27.080Z,15.18
2022-12-31T11:57:04.677Z,15.25
2022-12-31T11:59:32.137Z,15.26
2022-12-31T12:02:25.096Z,15.22
2022-12-31T12:04:53.610Z,15.18
2022-12-31T12:07:24.094Z,15.45
2022-12-31T12:09:54.588Z,15.69
2022-12-31T12:12:22.475Z,15.89
2022-12-31T12:14:53.743Z,15.77
2022-12-31T12:17:32.569Z,15.62
2022-12-31T12:20:13.511Z,15.67
2022-12-31T12:22:52.487Z,15.54
2022-12-31T12:25:22.456Z,15.06
2022-12-31T12:27:49.701Z,15.26
2022-12-31T12:30:21.975Z,15.37
2022-12-31T12:33:01.379Z,15.31
2022-12-31T12:35:34.828Z,15.10
2022-12-31T12:38:05.582Z,15.02
2022-12-31T12:40:35.021Z,15.40
2022-12-31T12:43:02.952Z,15.41
2022-12-31T12:45:51.484Z,15.33
2022-12-31T12:48:28.924Z,15.48
2022-12-31T12:50:56.202Z,15.67
2022-12-31T12:53:32.486Z,15.63
2022-12-31T12:56:08.962Z,15.72
2022-12-31T12:58:54.726Z,15.45
2022-12-31T13:01:47.830Z,15.44
2022-12-31T13:04:35.209Z,15.26
2022-12-31T13:07:19.499Z,15.28
2022-12-31T13:10:20.631Z,15.27
2022-12-31T13:15:58.834Z,15.11
2022-12-31T13:19:09.596Z,15.14
2022-12-31T13:21:51.153Z,14.98
2022-12-31T13:24:53.545Z,14.86
2022-12-31T13:27:29.763Z,14.71
2022-12-31T13:30:01.563Z,14.73
2022-12-31T13:32:43.066Z,14.58
2022-12-31T13:35:45.722Z,14.45
2022-12-31T13:38:18.721Z,14.51
2022-12-31T13:40:57.124Z,14.41
2022-12-31T13:43:51.139Z,14.19
2022-12-31T13:46:44.310Z,14.41
2022-12-31T13:49:26.711Z,14.13
2022-12-31T13:52:18.889Z,14.22
2022-12-31T13:55:23.941Z,14.10
2022-12-31T13:58:09.436Z,14.04
2022-12-31T14:01:15.091Z,13.98
2022-12-31T14:03:59.377Z,14.08
2022-12-31T14:06:34.143Z,14.09
2022-12-31T14:09:01.720Z,13.96
2022-12-31T14:11:59.887Z,13.95
2022-12-31T14:14:54.527Z,13.79
2022-12-31T14:17:30.818Z,13.71
2022-12-31T14:20:21.262Z,13.62
2022-12-31T14:23:09.722Z,13.72
2022-12-31T14:25:42.836Z,13.50
2022-12-31T14:28:23.951Z,13.51
2022-12-31T14:31:00.503Z,13.42
2022-12-31T14:33:54.237Z,13.21
2022-12-31T14:36:46.438Z,13.16
2022-12-31T14:39:26.884Z,13.12
2022-12-31T14:42:13.599Z,13.12
2022-12-31T14:45:25.156Z,13.11
2022-12-31T14:48:10.812Z,12.93
2022-12-31T14:50:38.671Z,12.84
2022-12-31T14:53:07.526Z,12.81
2022-12-31T14:55:37.044Z,12.64
2022-12-31T14:58:29.623Z,12.47
2022-12-31T15:01:03.495Z,12.40
2022-12-31T15:03:30.897Z,12.37
2022-12-31T15:06:07.227Z,12.28
2022-12-31T15:08:56.058Z,12.21
2022-12-31T15:12:00.447Z,12.12
2022-12-31T15:14:56.730Z,12.15
2022-12-31T15:17:43.165Z,11.93
2022-12-31T15:20:48.133Z,11.97
2022-12-31T15:23:25.119Z,11.88
2022-12-31T15:26:02.517Z,11.86
2022-12-31T15:28:36.439Z,11.76
2022-12-31T15:31:20.979Z,11.63
2022-12-31T15:33:56.790Z,11.64
2022-12-31T15:36:30.449Z,11.77
2022-12-31T15:39:07.699Z,11.66
2022-12-31T15:42:03.190Z,11.72
2022-12-31T15:44:44.657Z,11.59
2022-12-31T15:47:26.065Z,11.55
2022-12-31T15:49:54.741Z,11.49
2022-12-31T15:52:44.075Z,11.38
2022-12-31T15:55:34.433Z,11.20
2022-12-31T15:58:06.105Z,11.05
2022-12-31T16:00:54.782Z,10.85
2022-12-31T16:03:28.170Z,10.79
2022-12-31T16:06:01.023Z,10.75
2022-12-31T16:08:34.943Z,10.71
2022-12-31T16:11:05.901Z,10.67
2022-12-31T16:13:37.166Z,10.51
2022-12-31T16:16:15.129Z,10.44
2022-12-31T16:18:44.204Z,10.53
2022-12-31T16:21:24.859Z,10.44
2022-12-31T16:23:57.747Z,10.41
2022-12-31T16:26:31.791Z,10.32
2022-12-31T16:29:04.532Z,10.23
2022-12-31T16:31:32.134Z,10.34
2022-12-31T16:34:12.394Z,10.26
2022-12-31T16:36:39.801Z,10.19
2022-12-31T16:39:37.657Z,10.23
2022-12-31T16:42:13.714Z,10.15
2022-12-31T16:44:41.819Z,10.06
2022-12-31T16:47:15.064Z,10.13
2022-12-31T16:49:42.943Z,10.17
2022-12-31T16:52:28.419Z,10.19
2022-12-31T16:54:57.279Z,10.20
2022-12-31T16:57:28.953Z,10.10
2022-12-31T17:00:04.917Z,10.08
2022-12-31T17:02:39.899Z,10.00
2022-12-31T17:05:25.063Z,10.01
2022-12-31T17:07:52.931Z,9.99
2022-12-31T17:10:24.492Z,9.95
2022-12-31T17:15:45.220Z,10.04
2022-12-31T17:18:20.645Z,10.05
2022-12-31T17:20:50.530Z,10.06
2022-12-31T17:23:31.732Z,10.02
2022-12-31T17:26:22.316Z,10.00
2022-12-31T17:28:52.317Z,10.03
2022-12-31T17:31:30.888Z,10.01
2022-12-31T17:34:15.097Z,9.98
2022-12-31T17:36:58.011Z,10.04
2022-12-31T17:39:26.705Z,10.12
2022-12-31T17:41:57.785Z,10.17
2022-12-31T17:44:31.463Z,9.97
2022-12-31T17:46:58.956Z,9.95
2022-12-31T17:49:31.645Z,9.88
2022-12-31T17:51:59.075Z,9.86
2022-12-31T17:54:26.494Z,9.89
2022-12-31T17:56:54.254Z,9.78
2022-12-31T17:59:24.650Z,9.70
2022-12-31T18:01:52.121Z,9.67
2022-12-31T18:04:20.824Z,9.62
2022-12-31T18:06:48.279Z,9.64
2022-12-31T18:09:16.517Z,9.56
2022-12-31T18:11:44.998Z,9.54
2022-12-31T18:14:15.062Z,9.62
2022-12-31T18:16:42.619Z,9.64
2022-12-31T18:19:37.820Z,9.75
2022-12-31T18:22:02.303Z,9.70
2022-12-31T18:24:29.636Z,9.63
2022-12-31T18:26:56.888Z,9.68
2022-12-31T18:29:24.120Z,9.61
2022-12-31T18:31:51.703Z,9.65
2022-12-31T18:34:19.167Z,9.67
2022-12-31T18:36:46.583Z,9.68
2022-12-31T18:39:14.133Z,9.57
2022-12-31T18:41:45.902Z,9.42
2022-12-31T18:44:15.057Z,9.49
2022-12-31T18:46:43.019Z,9.54
2022-12-31T18:49:10.608Z,9.50
2022-12-31T18:51:37.941Z,9.38
2022-12-31T18:54:06.834Z,9.31
2022-12-31T18:56:34.150Z,9.42
2022-12-31T18:59:02.950Z,9.30
2022-12-31T19:01:33.104Z,9.30
2022-12-31T19:04:12.214Z,9.28
2022-12-31T19:06:39.872Z,9.18
2022-12-31T19:09:23.907Z,9.07
2022-12-31T19:11:54.826Z,8.96
2022-12-31T19:14:24.306Z,8.87
2022-12-31T19:16:53.346Z,8.89
2022-12-31T19:19:21.050Z,8.94
2022-12-31T19:21:48.312Z,8.98
2022-12-31T19:24:19.166Z,8.90
2022-12-31T19:26:46.654Z,8.85
2022-12-31T19:29:22.255Z,8.86
2022-12-31T19:31:49.781Z,8.70
2022-12-31T19:34:17.204Z,8.61
2022-12-31T19:36:44.962Z,8.50
2022-12-31T19:39:17.761Z,8.44
2022-12-31T19:41:45.933Z,8.44
2022-12-31T19:44:18.191Z,8.42
2022-12-31T19:46:46.849Z,8.50
2022-12-31T19:49:15.085Z,8.43
2022-12-31T19:51:42.459Z,8.43
2022-12-31T19:54:12.678Z,8.44
2022-12-31T19:56:40.171Z,8.42
2022-12-31T19:59:09.661Z,8.35
2022-12-31T20:01:37.494Z,8.38
2022-12-31T20:04:05.046Z,8.29
2022-12-31T20:06:32.385Z,8.35
2022-12-31T20:08:59.595Z,8.19
2022-12-31T20:11:26.918Z,8.29
2022-12-31T20:13:54.314Z,8.30
2022-12-31T20:16:24.033Z,8.32
2022-12-31T20:18:51.524Z,8.33
2022-12-31T20:21:21.791Z,8.32
2022-12-31T20:23:50.939Z,8.28
2022-12-31T20:26:19.076Z,8.40
2022-12-31T20:28:46.706Z,8.41
2022-12-31T20:31:16.816Z,8.47
2022-12-31T20:33:44.902Z,8.51
2022-12-31T20:36:14.167Z,8.47
2022-12-31T20:38:41.847Z,8.43
2022-12-31T20:41:15.287Z,8.71
2022-12-31T20:43:43.826Z,8.66
2022-12-31T20:46:31.445Z,8.68
2022-12-31T20:49:01.131Z,8.71
2022-12-31T20:51:31.261Z,8.85
2022-12-31T20:54:01.841Z,8.85
2022-12-31T20:56:32.543Z,8.84
2022-12-31T20:59:00.658Z,8.84
2022-12-31T21:01:41.809Z,8.83
2022-12-31T21:04:15.520Z,8.89
2022-12-31T21:06:43.102Z,8.89
2022-12-31T21:09:10.520Z,8.92
2022-12-31T21:11:56.260Z,8.82
2022-12-31T21:14:23.572Z,8.71
2022-12-31T21:16:50.875Z,8.67
2022-12-31T21:19:18.152Z,8.57
2022-12-31T21:21:45.441Z,8.49
2022-12-31T21:24:12.683Z,8.50
2022-12-31T21:26:39.884Z,8.47
2022-12-31T21:29:07.213Z,8.43
2022-12-31T21:31:34.584Z,8.44
2022-12-31T21:34:01.882Z,8.47
2022-12-31T21:36:29.315Z,8.50
2022-12-31T21:38:56.783Z,8.50
2022-12-31T21:41:47.096Z,8.52
2022-12-31T21:44:14.577Z,8.53
2022-12-31T21:47:00.887Z,8.62
2022-12-31T21:49:29.337Z,8.64
2022-12-31T21:52:28.907Z,8.58
2022-12-31T21:55:37.424Z,8.64
2022-12-31T22:01:10.371Z,8.85
2022-12-31T22:03:38.384Z,8.83
2022-12-31T22:06:13.187Z,8.86
2022-12-31T22:08:42.845Z,8.85
2022-12-31T22:11:11.912Z,8.79
2022-12-31T22:13:40.391Z,8.83
2022-12-31T22:16:08.934Z,8.77
2022-12-31T22:18:41.247Z,8.85
2022-12-31T22:21:18.455Z,8.92
2022-12-31T22:23:52.132Z,9.11
2022-12-31T22:26:22.354Z,9.14
2022-12-31T22:28:50.576Z,9.11
2022-12-31T22:31:24.801Z,8.98
2022-12-31T22:33:53.072Z,9.07
2022-12-31T22:36:21.800Z,9.04
2022-12-31T22:38:50.895Z,8.94
2022-12-31T22:41:20.819Z,8.93
2022-12-31T22:43:50.115Z,8.94
2022-12-31T22:46:20.294Z,9.00
2022-12-31T22:48:48.244Z,8.97
2022-12-31T22:51:16.795Z,8.92
2022-12-31T22:53:44.713Z,8.88
2022-12-31T22:56:14.626Z,8.87
2022-12-31T22:58:41.960Z,8.84
2022-12-31T23:01:22.365Z,8.92
2022-12-31T23:03:51.453Z,8.86
2022-12-31T23:06:20.294Z,8.79
2022-12-31T23:09:06.107Z,8.81
2022-12-31T23:11:35.294Z,8.72
2022-12-31T23:14:21.629Z,8.61
2022-12-31T23:17:30.950Z,8.49
2022-12-31T23:20:13.440Z,8.49
2022-12-31T23:22:59.222Z,8.40
2022-12-31T23:25:26.729Z,8.41
2022-12-31T23:27:53.970Z,8.37
2022-12-31T23:30:21.336Z,8.38
2022-12-31T23:32:48.862Z,8.27
2022-12-31T23:35:16.439Z,8.19
2022-12-31T23:37:43.661Z,8.25
2022-12-31T23:40:17.217Z,8.08
2022-12-31T23:42:48.537Z,8.06
2022-12-31T23:45:15.943Z,8.02
2022-12-31T23:47:43.310Z,7.95
2022-12-31T23:50:10.632Z,7.88
2022-12-31T23:52:37.878Z,7.93
2022-12-31T23:55:05.287Z,7.83
2022-12-31T23:57:32.793Z,7.83
